createdAt,value
2022-10-02T00:00:06.869Z,97705.22
2022-10-02T00:02:42.436Z,97701.06
2022-10-02T00:05:29.752Z,97704.49
2022-10-02T00:08:03.401Z,97706.20
2022-10-02T00:10:42.664Z,97709.51
2022-10-02T00:13:15.951Z,97710.80
2022-10-02T00:15:43.455Z,97710.71
2022-10-02T00:18:18.494Z,97709.50
2022-10-02T00:21:20.468Z,97706.04
2022-10-02T00:23:54.068Z,97704.64
2022-10-02T00:26:35.000Z,97706.98
2022-10-02T00:29:23.559Z,97707.86
2022-10-02T00:31:59.327Z,97718.18
2022-10-02T00:35:14.521Z,97716.48
2022-10-02T00:38:18.769Z,97724.49
2022-10-02T00:41:26.063Z,97725.00
2022-10-02T00:44:20.667Z,97729.27
2022-10-02T00:47:08.617Z,97729.78
2022-10-02T00:49:48.011Z,97730.58
2022-10-02T00:52:29.847Z,97730.48
2022-10-02T00:55:08.547Z,97732.73
2022-10-02T00:58:03.104Z,97734.66
2022-10-02T01:00:29.976Z,97736.58
2022-10-02T01:03:05.768Z,97740.36
2022-10-02T01:05:33.897Z,97737.64
2022-10-02T01:08:01.296Z,97738.95
2022-10-02T01:10:28.762Z,97739.11
2022-10-02T01:12:57.046Z,97738.52
2022-10-02T01:15:31.915Z,97742.31
2022-10-02T01:17:58.869Z,97744.02
2022-10-02T01:20:37.943Z,97744.34
2022-10-02T01:23:42.390Z,97743.30
2022-10-02T01:26:09.062Z,97744.66
2022-10-02T01:28:35.814Z,97751.21
2022-10-02T01:31:08.569Z,97751.44
2022-10-02T01:33:38.120Z,97753.45
2022-10-02T01:36:05.735Z,97755.52
2022-10-02T01:38:32.273Z,97752.89
2022-10-02T01:40:58.745Z,97755.52
2022-10-02T01:43:35.691Z,97755.63
2022-10-02T01:46:21.072Z,97755.65
2022-10-02T01:48:55.675Z,97750.52
2022-10-02T01:51:28.082Z,97745.50
2022-10-02T01:54:20.729Z,97748.44
2022-10-02T01:56:53.177Z,97745.90
2022-10-02T01:59:40.445Z,97747.73
2022-10-02T02:02:31.512Z,97758.42
2022-10-02T02:05:04.801Z,97764.86
2022-10-02T02:07:39.279Z,97772.11
2022-10-02T02:10:26.548Z,97774.35
2022-10-02T02:13:02.667Z,97776.55
2022-10-02T02:15:43.308Z,97771.79
2022-10-02T02:18:17.460Z,97780.98
2022-10-02T02:20:48.281Z,97784.14
2022-10-02T02:23:20.368Z,97778.23
2022-10-02T02:25:51.397Z,97787.22
2022-10-02T02:28:21.311Z,97789.66
2022-10-02T02:30:51.830Z,97794.98
2022-10-02T02:33:24.757Z,97790.16
2022-10-02T02:35:58.840Z,97800.32
2022-10-02T02:38:32.734Z,97800.17
2022-10-02T02:41:12.340Z,97800.89
2022-10-02T02:43:54.245Z,97810.38
2022-10-02T02:46:39.444Z,97812.48
2022-10-02T02:49:11.799Z,97823.14
2022-10-02T02:51:42.125Z,97818.20
2022-10-02T02:54:37.803Z,97825.27
2022-10-02T02:57:07.558Z,97826.92
2022-10-02T02:59:36.227Z,97828.77
2022-10-02T03:02:02.964Z,97832.54
2022-10-02T03:04:29.532Z,97833.06
2022-10-02T03:07:01.417Z,97835.85
2022-10-02T03:09:30.663Z,97839.20
2022-10-02T03:12:16.607Z,97846.81
2022-10-02T03:14:58.514Z,97851.79
2022-10-02T03:17:44.546Z,97847.60
2022-10-02T03:20:34.495Z,97842.53
2022-10-02T03:23:28.484Z,97843.92
2022-10-02T03:26:08.840Z,97847.55
2022-10-02T03:28:56.001Z,97849.34
2022-10-02T03:31:27.868Z,97848.23
2022-10-02T03:33:55.593Z,97844.49
2022-10-02T03:36:22.893Z,97843.79
2022-10-02T03:39:12.530Z,97842.70
2022-10-02T03:41:38.589Z,97844.73
2022-10-02T03:44:05.102Z,97847.30
2022-10-02T03:46:31.659Z,97853.68
2022-10-02T03:48:58.214Z,97852.02
2022-10-02T03:51:24.816Z,97853.36
2022-10-02T03:53:52.282Z,97853.84
2022-10-02T03:56:24.695Z,97856.48
2022-10-02T03:58:55.027Z,97862.93
2022-10-02T04:01:37.267Z,97863.35
2022-10-02T04:04:15.024Z,97871.81
2022-10-02T04:06:47.272Z,97878.23
2022-10-02T04:09:21.593Z,97879.23
2022-10-02T04:11:55.302Z,97883.30
2022-10-02T04:14:30.693Z,97878.41
2022-10-02T04:17:04.045Z,97879.94
2022-10-02T04:19:47.501Z,97888.84
2022-10-02T04:22:39.671Z,97884.42
2022-10-02T04:25:32.615Z,97882.09
2022-10-02T04:28:05.579Z,97884.54
2022-10-02T04:30:32.221Z,97892.84
2022-10-02T04:33:10.637Z,97896.31
2022-10-02T04:35:56.363Z,97900.68
2022-10-02T04:38:31.657Z,97895.27
2022-10-02T04:41:10.409Z,97901.16
2022-10-02T04:43:59.033Z,97907.89
2022-10-02T04:46:37.682Z,97907.05
2022-10-02T04:49:26.374Z,97915.77
2022-10-02T04:52:09.533Z,97919.80
2022-10-02T04:54:48.418Z,97925.88
2022-10-02T04:57:33.905Z,97922.15
2022-10-02T05:00:21.804Z,97929.52
2022-10-02T05:03:26.177Z,97935.25
2022-10-02T05:06:38.841Z,97935.73
2022-10-02T05:09:48.203Z,97939.24
2022-10-02T05:12:24.128Z,97948.19
2022-10-02T05:14:56.288Z,97956.20
2022-10-02T05:17:22.728Z,97952.99
2022-10-02T05:20:06.867Z,97955.61
2022-10-02T05:22:58.405Z,97952.15
2022-10-02T05:25:36.738Z,97958.02
2022-10-02T05:28:12.256Z,97961.19
2022-10-02T05:31:18.157Z,97968.20
2022-10-02T05:33:53.787Z,97974.20
2022-10-02T05:36:32.520Z,97976.20
2022-10-02T05:39:37.670Z,97974.70
2022-10-02T05:42:14.755Z,97978.06
2022-10-02T05:44:50.750Z,97981.03
2022-10-02T05:47:28.575Z,97983.98
2022-10-02T05:50:16.872Z,97984.48
2022-10-02T05:53:05.289Z,97988.02
2022-10-02T05:55:38.262Z,97990.02
2022-10-02T05:58:41.631Z,97980.90
2022-10-02T06:01:15.583Z,97978.25
2022-10-02T06:03:47.984Z,97987.11
2022-10-02T06:06:31.575Z,97995.25
2022-10-02T06:09:04.409Z,98000.62
2022-10-02T06:11:41.352Z,98005.90
2022-10-02T06:14:19.701Z,98006.72
2022-10-02T06:16:54.114Z,98005.48
2022-10-02T06:19:32.408Z,98013.39
2022-10-02T06:22:06.427Z,98006.10
2022-10-02T06:24:47.356Z,98004.64
2022-10-02T06:27:48.956Z,98015.27
2022-10-02T06:30:18.065Z,98015.37
2022-10-02T06:33:22.543Z,98017.11
2022-10-02T06:36:04.419Z,98022.88
2022-10-02T06:38:53.566Z,98017.50
2022-10-02T06:41:47.188Z,98019.32
2022-10-02T06:44:35.391Z,98021.62
2022-10-02T06:47:50.474Z,98024.90
2022-10-02T06:50:26.128Z,98028.43
2022-10-02T06:53:00.246Z,98029.67
2022-10-02T06:55:40.614Z,98033.46
2022-10-02T06:58:25.794Z,98036.27
2022-10-02T07:01:02.647Z,98044.49
2022-10-02T07:03:51.643Z,98042.98
2022-10-02T07:06:23.820Z,98048.05
2022-10-02T07:09:33.859Z,98050.61
2022-10-02T07:12:15.170Z,98053.65
2022-10-02T07:15:00.309Z,98060.34
2022-10-02T07:17:45.161Z,98062.29
2022-10-02T07:20:59.685Z,98067.29
2022-10-02T07:23:43.867Z,98068.19
2022-10-02T07:26:54.312Z,98067.66
2022-10-02T07:29:32.317Z,98073.33
2022-10-02T07:32:41.458Z,98066.45
2022-10-02T07:35:19.880Z,98065.34
2022-10-02T07:38:05.269Z,98067.23
2022-10-02T07:40:34.883Z,98074.20
2022-10-02T07:43:19.351Z,98070.32
2022-10-02T07:46:00.191Z,98070.27
2022-10-02T07:49:14.959Z,98075.11
2022-10-02T07:52:01.098Z,98072.76
2022-10-02T07:54:49.142Z,98066.21
2022-10-02T07:57:46.735Z,98063.49
2022-10-02T08:00:16.323Z,98076.31
2022-10-02T08:03:00.237Z,98061.13
2022-10-02T08:05:49.029Z,98065.55
2022-10-02T08:08:38.411Z,98062.11
2022-10-02T08:11:13.627Z,98062.20
2022-10-02T08:13:51.453Z,98065.98
2022-10-02T08:16:20.572Z,98069.05
2022-10-02T08:19:02.660Z,98070.70
2022-10-02T08:21:32.879Z,98075.51
2022-10-02T08:24:23.619Z,98071.86
2022-10-02T08:27:06.722Z,98073.55
2022-10-02T08:29:33.264Z,98076.92
2022-10-02T08:31:59.848Z,98071.60
2022-10-02T08:34:28.287Z,98070.27
2022-10-02T08:37:42.602Z,98066.61
2022-10-02T08:40:46.878Z,98065.91
2022-10-02T08:43:43.481Z,98071.67
2022-10-02T08:46:21.944Z,98071.66
2022-10-02T08:49:15.924Z,98072.39
2022-10-02T08:52:05.814Z,98073.57
2022-10-02T08:55:09.428Z,98073.00
2022-10-02T08:58:13.104Z,98077.96
2022-10-02T09:00:58.584Z,98071.42
2022-10-02T09:03:49.541Z,98073.91
2022-10-02T09:06:38.978Z,98062.27
2022-10-02T09:09:43.002Z,98063.63
2022-10-02T09:12:28.309Z,98056.13
2022-10-02T09:15:15.703Z,98059.42
2022-10-02T09:17:42.181Z,98054.29
2022-10-02T09:20:23.831Z,98047.83
2022-10-02T09:23:20.745Z,98047.74
2022-10-02T09:25:57.278Z,98048.40
2022-10-02T09:28:39.099Z,98043.64
2022-10-02T09:31:36.844Z,98052.38
2022-10-02T09:34:34.750Z,98052.42
2022-10-02T09:37:42.248Z,98057.36
2022-10-02T09:40:28.966Z,98061.06
2022-10-02T09:43:18.295Z,98051.65
2022-10-02T09:46:03.563Z,98062.05
2022-10-02T09:48:53.717Z,98060.59
2022-10-02T09:51:45.244Z,98057.79
2022-10-02T09:54:36.204Z,98060.13
2022-10-02T09:57:38.204Z,98061.44
2022-10-02T10:00:24.184Z,98052.02
2022-10-02T10:03:12.725Z,98054.42
2022-10-02T10:06:13.427Z,98056.02
2022-10-02T10:08:46.404Z,98063.89
2022-10-02T10:11:25.882Z,98059.89
2022-10-02T10:14:23.729Z,98054.38
2022-10-02T10:17:34.205Z,98060.64
2022-10-02T10:20:18.108Z,98066.86
2022-10-02T10:23:01.037Z,98065.06
2022-10-02T10:25:58.756Z,98065.86
2022-10-02T10:28:46.903Z,98061.17
2022-10-02T10:32:00.554Z,98059.63
2022-10-02T10:34:49.005Z,98057.55
2022-10-02T10:37:36.698Z,98052.04
2022-10-02T10:40:26.841Z,98047.14
2022-10-02T10:43:27.567Z,98045.91
2022-10-02T10:46:12.746Z,98040.73
2022-10-02T10:49:07.773Z,98039.86
2022-10-02T10:51:53.975Z,98041.33
2022-10-02T10:54:51.315Z,98045.73
2022-10-02T10:57:24.333Z,98039.19
2022-10-02T11:00:10.772Z,98042.95
2022-10-02T11:02:59.465Z,98043.98
2022-10-02T11:06:04.760Z,98043.55
2022-10-02T11:08:47.539Z,98038.11
2022-10-02T11:11:31.535Z,98047.05
2022-10-02T11:14:13.129Z,98050.90
2022-10-02T11:17:01.483Z,98054.42
2022-10-02T11:19:52.948Z,98054.73
2022-10-02T11:22:29.276Z,98051.63
2022-10-02T11:25:12.552Z,98046.77
2022-10-02T11:28:03.804Z,98047.96
2022-10-02T11:30:51.317Z,98040.25
2022-10-02T11:33:32.273Z,98041.30
2022-10-02T11:36:04.604Z,98039.67
2022-10-02T11:38:43.045Z,98039.34
2022-10-02T11:41:36.989Z,98035.85
2022-10-02T11:44:22.547Z,98034.39
2022-10-02T11:47:07.596Z,98038.33
2022-10-02T11:49:49.284Z,98022.73
2022-10-02T11:52:48.238Z,98016.90
2022-10-02T11:55:33.168Z,98008.42
2022-10-02T11:58:13.657Z,98009.05
2022-10-02T12:01:17.247Z,98005.49
2022-10-02T12:03:55.651Z,98003.07
2022-10-02T12:07:00.094Z,98006.85
2022-10-02T12:09:52.333Z,98012.48
2022-10-02T12:12:29.399Z,98008.67
2022-10-02T12:15:19.021Z,98007.80
2022-10-02T12:18:00.291Z,98010.88
2022-10-02T12:20:45.774Z,98010.08
2022-10-02T12:23:35.800Z,98005.91
2022-10-02T12:26:30.668Z,98008.73
2022-10-02T12:29:12.506Z,98008.17
2022-10-02T12:31:55.735Z,98005.59
2022-10-02T12:34:38.177Z,98003.81
2022-10-02T12:37:12.540Z,98002.51
2022-10-02T12:39:54.061Z,98005.59
2022-10-02T12:42:46.574Z,98004.69
2022-10-02T12:45:31.568Z,98005.71
2022-10-02T12:48:17.140Z,98003.09
2022-10-02T12:51:18.378Z,97990.98
2022-10-02T12:54:21.187Z,97985.66
2022-10-02T12:57:22.442Z,97984.66
2022-10-02T13:00:01.360Z,97978.36
2022-10-02T13:03:01.219Z,97973.83
2022-10-02T13:05:34.699Z,97967.17
2022-10-02T13:08:28.377Z,97968.36
2022-10-02T13:11:00.961Z,97970.14
2022-10-02T13:13:54.543Z,97963.33
2022-10-02T13:16:45.628Z,97960.18
2022-10-02T13:19:35.847Z,97958.06
2022-10-02T13:22:43.893Z,97954.73
2022-10-02T13:25:33.864Z,97954.35
2022-10-02T13:28:15.614Z,97953.35
2022-10-02T13:31:21.048Z,97947.06
2022-10-02T13:34:16.178Z,97944.51
2022-10-02T13:37:01.795Z,97952.59
2022-10-02T13:39:34.086Z,97949.71
2022-10-02T13:42:14.960Z,97950.35
2022-10-02T13:45:01.669Z,97952.70
2022-10-02T13:47:36.000Z,97953.50
2022-10-02T13:50:18.016Z,97946.34
2022-10-02T13:52:50.680Z,97940.65
2022-10-02T13:55:21.212Z,97939.53
2022-10-02T13:58:35.984Z,97939.90
2022-10-02T14:01:07.758Z,97942.27
2022-10-02T14:03:47.928Z,97942.38
2022-10-02T14:06:27.244Z,97936.96
2022-10-02T14:09:18.052Z,97930.02
2022-10-02T14:12:09.222Z,97930.35
2022-10-02T14:15:12.299Z,97929.33
2022-10-02T14:18:10.858Z,97924.23
2022-10-02T14:20:46.511Z,97928.02
2022-10-02T14:23:31.647Z,97920.23
2022-10-02T14:26:04.784Z,97914.48
2022-10-02T14:28:56.211Z,97912.39
2022-10-02T14:31:30.158Z,97909.44
2022-10-02T14:34:15.203Z,97902.16
2022-10-02T14:37:09.799Z,97899.59
2022-10-02T14:39:41.733Z,97896.66
2022-10-02T14:42:38.669Z,97887.34
2022-10-02T14:45:17.364Z,97884.94
2022-10-02T14:48:17.876Z,97879.52
2022-10-02T14:51:01.678Z,97881.27
2022-10-02T14:54:06.058Z,97882.95
2022-10-02T14:56:53.126Z,97883.98
2022-10-02T14:59:38.626Z,97876.19
2022-10-02T15:02:29.377Z,97881.27
2022-10-02T15:05:04.361Z,97881.91
2022-10-02T15:07:35.162Z,97888.42
2022-10-02T15:10:14.390Z,97889.40
2022-10-02T15:12:59.669Z,97886.05
2022-10-02T15:15:46.742Z,97879.30
2022-10-02T15:18:41.024Z,97875.63
2022-10-02T15:21:07.396Z,97878.89
2022-10-02T15:23:33.857Z,97875.84
2022-10-02T15:26:15.792Z,97880.88
2022-10-02T15:28:55.867Z,97880.32
2022-10-02T15:31:28.523Z,97882.23
2022-10-02T15:34:39.201Z,97893.29
2022-10-02T15:37:11.447Z,97895.52
2022-10-02T15:40:11.653Z,97892.33
2022-10-02T15:42:54.024Z,97894.73
2022-10-02T15:45:49.982Z,97900.23
2022-10-02T15:48:34.777Z,97900.02
2022-10-02T15:51:19.348Z,97895.13
2022-10-02T15:54:10.165Z,97895.84
2022-10-02T15:57:18.275Z,97895.39
2022-10-02T15:59:56.716Z,97896.62
2022-10-02T16:03:01.434Z,97897.20
2022-10-02T16:05:43.031Z,97892.54
2022-10-02T16:08:24.370Z,97891.52
2022-10-02T16:11:26.704Z,97893.00
2022-10-02T16:14:17.817Z,97902.62
2022-10-02T16:17:13.202Z,97904.38
2022-10-02T16:20:04.262Z,97899.66
2022-10-02T16:23:04.997Z,97901.30
2022-10-02T16:25:53.187Z,97899.42
2022-10-02T16:29:06.412Z,97894.30
2022-10-02T16:31:42.068Z,97892.20
2022-10-02T16:34:35.202Z,97899.39
2022-10-02T16:37:20.281Z,97896.27
2022-10-02T16:39:56.650Z,97902.34
2022-10-02T16:42:31.301Z,97907.19
2022-10-02T16:45:22.599Z,97914.48
2022-10-02T16:48:00.643Z,97919.36
2022-10-02T16:51:07.598Z,97919.19
2022-10-02T16:53:36.805Z,97911.94
2022-10-02T16:56:32.522Z,97907.15
2022-10-02T16:59:09.570Z,97905.49
2022-10-02T17:02:05.930Z,97907.61
2022-10-02T17:04:55.245Z,97911.91
2022-10-02T17:07:48.478Z,97910.94
2022-10-02T17:10:36.961Z,97907.41
2022-10-02T17:13:10.100Z,97911.98
2022-10-02T17:15:45.180Z,97913.39
2022-10-02T17:18:17.762Z,97915.16
2022-10-02T17:20:49.772Z,97916.95
2022-10-02T17:23:48.252Z,97919.95
2022-10-02T17:26:43.482Z,97924.17
2022-10-02T17:29:12.937Z,97929.86
2022-10-02T17:31:57.319Z,97928.27
2022-10-02T17:34:33.404Z,97928.15
2022-10-02T17:37:40.040Z,97926.76
2022-10-02T17:40:27.982Z,97924.81
2022-10-02T17:43:29.438Z,97926.26
2022-10-02T17:46:23.623Z,97926.08
2022-10-02T17:49:02.655Z,97922.80
2022-10-02T17:54:50.220Z,97923.27
2022-10-02T17:57:36.916Z,97928.37
2022-10-02T18:00:18.839Z,97926.86
2022-10-02T18:03:13.234Z,97927.17
2022-10-02T18:05:56.773Z,97936.99
2022-10-02T18:08:41.542Z,97931.60
2022-10-02T18:11:23.336Z,97927.77
2022-10-02T18:14:10.253Z,97920.17
2022-10-02T18:17:08.947Z,97916.23
2022-10-02T18:19:59.555Z,97911.57
2022-10-02T18:22:50.259Z,97912.29
2022-10-02T18:25:36.660Z,97906.41
2022-10-02T18:28:21.303Z,97909.09
2022-10-02T18:30:54.929Z,97913.08
2022-10-02T18:33:36.932Z,97914.36
2022-10-02T18:36:25.095Z,97905.40
2022-10-02T18:39:07.827Z,97903.63
2022-10-02T18:42:10.057Z,97903.23
2022-10-02T18:45:13.795Z,97902.77
2022-10-02T18:47:56.203Z,97903.77
2022-10-02T18:50:54.898Z,97899.70
2022-10-02T18:53:33.632Z,97895.84
2022-10-02T18:56:08.909Z,97897.14
2022-10-02T18:59:20.362Z,97890.98
2022-10-02T19:02:25.113Z,97891.56
2022-10-02T19:05:12.328Z,97886.75
2022-10-02T19:07:45.657Z,97887.84
2022-10-02T19:10:25.962Z,97886.21
2022-10-02T19:12:56.867Z,97886.11
2022-10-02T19:15:27.874Z,97881.88
2022-10-02T19:18:20.425Z,97875.15
2022-10-02T19:20:49.860Z,97869.87
2022-10-02T19:23:30.441Z,97866.14
2022-10-02T19:26:02.568Z,97865.75
2022-10-02T19:28:31.732Z,97866.05
2022-10-02T19:31:03.545Z,97872.79
2022-10-02T19:33:42.166Z,97873.23
2022-10-02T19:36:16.070Z,97868.59
2022-10-02T19:38:49.705Z,97867.16
2022-10-02T19:41:17.346Z,97866.71
2022-10-02T19:44:08.035Z,97865.38
2022-10-02T19:46:44.932Z,97863.35
2022-10-02T19:49:22.293Z,97862.77
2022-10-02T19:51:49.406Z,97858.25
2022-10-02T19:54:20.122Z,97862.77
2022-10-02T19:56:47.446Z,97857.13
2022-10-02T19:59:23.846Z,97856.34
2022-10-02T20:01:53.373Z,97845.60
2022-10-02T20:04:26.145Z,97845.10
2022-10-02T20:06:57.669Z,97841.91
2022-10-02T20:09:26.733Z,97848.26
2022-10-02T20:12:01.300Z,97852.27
2022-10-02T20:14:37.572Z,97856.46
2022-10-02T20:17:04.887Z,97858.88
2022-10-02T20:19:36.406Z,97858.94
2022-10-02T20:22:15.538Z,97864.23
2022-10-02T20:25:07.714Z,97877.78
2022-10-02T20:27:46.099Z,97895.09
2022-10-02T20:30:16.746Z,97904.50
2022-10-02T20:33:10.204Z,97904.14
2022-10-02T20:35:46.924Z,97910.41
2022-10-02T20:38:29.088Z,97909.66
2022-10-02T20:40:58.218Z,97913.70
2022-10-02T20:43:43.016Z,97921.59
2022-10-02T20:46:33.816Z,97928.11
2022-10-02T20:49:10.902Z,97927.54
2022-10-02T20:51:55.779Z,97919.95
2022-10-02T20:54:34.852Z,97926.48
2022-10-02T20:57:38.153Z,97920.95
2022-10-02T21:00:10.072Z,97918.52
2022-10-02T21:03:01.221Z,97914.80
2022-10-02T21:05:27.823Z,97918.23
2022-10-02T21:07:57.080Z,97919.98
2022-10-02T21:10:33.865Z,97921.78
2022-10-02T21:13:09.611Z,97919.47
2022-10-02T21:16:05.795Z,97921.82
2022-10-02T21:19:10.099Z,97924.80
2022-10-02T21:22:01.296Z,97928.58
2022-10-02T21:24:38.588Z,97933.92
2022-10-02T21:27:24.970Z,97936.82
2022-10-02T21:30:00.273Z,97936.94
2022-10-02T21:32:53.613Z,97934.92
2022-10-02T21:35:44.480Z,97933.51
2022-10-02T21:38:40.042Z,97935.06
2022-10-02T21:41:22.861Z,97929.41
2022-10-02T21:44:10.303Z,97931.73
2022-10-02T21:47:01.603Z,97927.44
2022-10-02T21:49:43.619Z,97926.44
2022-10-02T21:52:28.304Z,97927.89
2022-10-02T21:55:09.880Z,97928.77
2022-10-02T21:57:58.235Z,97932.24
2022-10-02T22:00:29.482Z,97937.83
2022-10-02T22:03:14.858Z,97941.33
2022-10-02T22:05:59.177Z,97939.70
2022-10-02T22:08:47.010Z,97943.63
2022-10-02T22:11:47.095Z,97945.27
2022-10-02T22:14:19.561Z,97943.33
2022-10-02T22:17:17.752Z,97942.81
2022-10-02T22:19:47.060Z,97943.81
2022-10-02T22:22:28.957Z,97946.88
2022-10-02T22:25:01.204Z,97943.30
2022-10-02T22:27:34.021Z,97940.08
2022-10-02T22:30:00.678Z,97937.33
2022-10-02T22:32:38.060Z,97941.98
2022-10-02T22:35:21.495Z,97935.64
2022-10-02T22:38:26.541Z,97932.38
2022-10-02T22:40:58.606Z,97934.19
2022-10-02T22:43:35.077Z,97929.41
2022-10-02T22:46:24.731Z,97930.36
2022-10-02T22:49:03.474Z,97929.67
2022-10-02T22:51:45.384Z,97927.43
2022-10-02T22:54:34.965Z,97928.84
2022-10-02T22:57:14.021Z,97931.33
2022-10-02T23:00:04.397Z,97930.71
2022-10-02T23:02:35.514Z,97932.75
2022-10-02T23:05:11.296Z,97930.76
2022-10-02T23:07:47.482Z,97936.64
2022-10-02T23:10:54.864Z,97932.61
2022-10-02T23:13:34.115Z,97937.52
2022-10-02T23:16:10.328Z,97936.34
2022-10-02T23:18:50.475Z,97938.23
2022-10-02T23:21:29.359Z,97936.77
2022-10-02T23:24:25.186Z,97934.09
2022-10-02T23:26:54.075Z,97929.82
2022-10-02T23:30:02.804Z,97928.33
2022-10-02T23:32:38.170Z,97929.38
2022-10-02T23:35:26.298Z,97936.15
2022-10-02T23:38:04.501Z,97932.60
2022-10-02T23:40:55.863Z,97932.41
2022-10-02T23:43:30.033Z,97934.67
2022-10-02T23:46:03.898Z,97934.83
2022-10-02T23:48:31.629Z,97931.15
2022-10-02T23:51:15.804Z,97928.91
2022-10-02T23:54:00.756Z,97936.19
2022-10-02T23:57:38.160Z,97938.11
